sensor_id;sensor_type;location;lat;lon;timestamp;P1;durP1;ratioP1;P2;durP2;ratioP2
53108;SDS011;39007;53.090;6.074;2023-06-19T00:00:32;8.40;;;6.93;;
53108;SDS011;39007;53.090;6.074;2023-06-19T00:02:58;9.55;;;7.80;;
53108;SDS011;39007;53.090;6.074;2023-06-19T00:05:24;8.95;;;7.30;;
53108;SDS011;39007;53.090;6.074;2023-06-19T00:07:50;8.52;;;7.03;;
53108;SDS011;39007;53.090;6.074;2023-06-19T00:10:17;11.43;;;7.13;;
53108;SDS011;39007;53.090;6.074;2023-06-19T00:12:43;7.90;;;7.10;;
53108;SDS011;39007;53.090;6.074;2023-06-19T00:15:09;9.27;;;7.13;;
53108;SDS011;39007;53.090;6.074;2023-06-19T00:17:36;8.98;;;6.80;;
53108;SDS011;39007;53.090;6.074;2023-06-19T00:20:05;12.52;;;6.85;;
53108;SDS011;39007;53.090;6.074;2023-06-19T00:22:31;10.73;;;6.90;;
53108;SDS011;39007;53.090;6.074;2023-06-19T00:24:57;7.88;;;6.65;;
53108;SDS011;39007;53.090;6.074;2023-06-19T00:27:24;8.15;;;6.63;;
53108;SDS011;39007;53.090;6.074;2023-06-19T00:29:51;10.02;;;7.07;;
53108;SDS011;39007;53.090;6.074;2023-06-19T00:32:17;12.23;;;7.03;;
53108;SDS011;39007;53.090;6.074;2023-06-19T00:34:43;8.60;;;6.20;;
53108;SDS011;39007;53.090;6.074;2023-06-19T00:37:09;10.35;;;7.28;;
53108;SDS011;39007;53.090;6.074;2023-06-19T00:39:38;11.45;;;6.55;;
53108;SDS011;39007;53.090;6.074;2023-06-19T00:42:05;8.07;;;6.60;;
53108;SDS011;39007;53.090;6.074;2023-06-19T00:44:31;8.45;;;6.97;;
53108;SDS011;39007;53.090;6.074;2023-06-19T00:46:58;10.93;;;7.00;;
53108;SDS011;39007;53.090;6.074;2023-06-19T00:49:25;8.80;;;6.40;;
53108;SDS011;39007;53.090;6.074;2023-06-19T00:51:52;9.25;;;6.47;;
53108;SDS011;39007;53.090;6.074;2023-06-19T00:54:18;9.88;;;6.53;;
53108;SDS011;39007;53.090;6.074;2023-06-19T00:56:45;10.48;;;6.97;;
53108;SDS011;39007;53.090;6.074;2023-06-19T00:59:14;9.27;;;6.82;;
53108;SDS011;39007;53.090;6.074;2023-06-19T01:01:41;10.23;;;6.30;;
53108;SDS011;39007;53.090;6.074;2023-06-19T01:04:07;9.38;;;6.57;;
53108;SDS011;39007;53.090;6.074;2023-06-19T01:06:51;10.18;;;6.82;;
53108;SDS011;39007;53.090;6.074;2023-06-19T01:09:23;9.95;;;7.15;;
53108;SDS011;39007;53.090;6.074;2023-06-19T01:11:52;9.52;;;6.60;;
53108;SDS011;39007;53.090;6.074;2023-06-19T01:14:30;8.43;;;6.72;;
53108;SDS011;39007;53.090;6.074;2023-06-19T01:16:59;10.30;;;6.50;;
53108;SDS011;39007;53.090;6.074;2023-06-19T01:19:25;8.15;;;6.50;;
53108;SDS011;39007;53.090;6.074;2023-06-19T01:21:51;8.40;;;6.97;;
53108;SDS011;39007;53.090;6.074;2023-06-19T01:24:17;7.68;;;6.57;;
53108;SDS011;39007;53.090;6.074;2023-06-19T01:26:44;7.97;;;6.65;;
53108;SDS011;39007;53.090;6.074;2023-06-19T01:29:13;8.82;;;6.43;;
53108;SDS011;39007;53.090;6.074;2023-06-19T01:31:45;9.27;;;6.63;;
53108;SDS011;39007;53.090;6.074;2023-06-19T01:34:12;7.40;;;6.15;;
53108;SDS011;39007;53.090;6.074;2023-06-19T01:36:40;10.35;;;6.80;;
53108;SDS011;39007;53.090;6.074;2023-06-19T01:39:06;8.93;;;6.97;;
53108;SDS011;39007;53.090;6.074;2023-06-19T01:41:34;11.20;;;6.43;;
53108;SDS011;39007;53.090;6.074;2023-06-19T01:44:01;8.27;;;6.43;;
53108;SDS011;39007;53.090;6.074;2023-06-19T01:46:27;8.82;;;6.72;;
53108;SDS011;39007;53.090;6.074;2023-06-19T01:48:54;10.50;;;6.53;;
53108;SDS011;39007;53.090;6.074;2023-06-19T01:51:20;10.02;;;6.72;;
53108;SDS011;39007;53.090;6.074;2023-06-19T01:53:46;9.27;;;6.80;;
53108;SDS011;39007;53.090;6.074;2023-06-19T01:56:12;9.57;;;7.07;;
53108;SDS011;39007;53.090;6.074;2023-06-19T01:58:38;11.00;;;7.30;;
53108;SDS011;39007;53.090;6.074;2023-06-19T02:01:04;9.93;;;7.38;;
53108;SDS011;39007;53.090;6.074;2023-06-19T02:03:30;9.57;;;6.60;;
53108;SDS011;39007;53.090;6.074;2023-06-19T02:05:57;9.70;;;7.10;;
53108;SDS011;39007;53.090;6.074;2023-06-19T02:08:23;9.00;;;6.82;;
53108;SDS011;39007;53.090;6.074;2023-06-19T02:10:49;9.50;;;6.90;;
53108;SDS011;39007;53.090;6.074;2023-06-19T02:13:15;10.95;;;6.80;;
53108;SDS011;39007;53.090;6.074;2023-06-19T02:15:42;9.98;;;7.28;;
53108;SDS011;39007;53.090;6.074;2023-06-19T02:18:08;11.32;;;7.60;;
53108;SDS011;39007;53.090;6.074;2023-06-19T02:20:34;10.98;;;7.40;;
53108;SDS011;39007;53.090;6.074;2023-06-19T02:23:00;9.85;;;7.25;;
53108;SDS011;39007;53.090;6.074;2023-06-19T02:25:26;12.73;;;7.57;;
53108;SDS011;39007;53.090;6.074;2023-06-19T02:27:52;12.10;;;7.20;;
53108;SDS011;39007;53.090;6.074;2023-06-19T02:30:18;10.38;;;7.13;;
53108;SDS011;39007;53.090;6.074;2023-06-19T02:32:45;10.15;;;7.13;;
53108;SDS011;39007;53.090;6.074;2023-06-19T02:35:11;10.10;;;7.38;;
53108;SDS011;39007;53.090;6.074;2023-06-19T02:37:38;11.15;;;7.30;;
53108;SDS011;39007;53.090;6.074;2023-06-19T02:40:04;12.77;;;7.50;;
53108;SDS011;39007;53.090;6.074;2023-06-19T02:42:31;9.27;;;7.82;;
53108;SDS011;39007;53.090;6.074;2023-06-19T02:44:57;10.48;;;7.50;;
53108;SDS011;39007;53.090;6.074;2023-06-19T02:47:28;9.23;;;7.03;;
53108;SDS011;39007;53.090;6.074;2023-06-19T02:49:56;8.45;;;6.97;;
53108;SDS011;39007;53.090;6.074;2023-06-19T02:52:22;9.68;;;6.88;;
53108;SDS011;39007;53.090;6.074;2023-06-19T02:54:48;9.68;;;6.82;;
53108;SDS011;39007;53.090;6.074;2023-06-19T02:57:14;12.30;;;7.20;;
53108;SDS011;39007;53.090;6.074;2023-06-19T02:59:40;8.77;;;6.78;;
53108;SDS011;39007;53.090;6.074;2023-06-19T03:02:06;9.93;;;6.85;;
53108;SDS011;39007;53.090;6.074;2023-06-19T03:04:32;9.40;;;6.65;;
53108;SDS011;39007;53.090;6.074;2023-06-19T03:06:58;9.45;;;7.00;;
53108;SDS011;39007;53.090;6.074;2023-06-19T03:09:25;10.68;;;7.68;;
53108;SDS011;39007;53.090;6.074;2023-06-19T03:11:51;9.02;;;7.75;;
53108;SDS011;39007;53.090;6.074;2023-06-19T03:14:18;8.73;;;7.40;;
53108;SDS011;39007;53.090;6.074;2023-06-19T03:16:44;11.00;;;7.63;;
53108;SDS011;39007;53.090;6.074;2023-06-19T03:19:10;11.18;;;6.90;;
53108;SDS011;39007;53.090;6.074;2023-06-19T03:21:36;9.38;;;7.55;;
53108;SDS011;39007;53.090;6.074;2023-06-19T03:24:03;10.32;;;7.30;;
53108;SDS011;39007;53.090;6.074;2023-06-19T03:26:29;13.50;;;7.32;;
53108;SDS011;39007;53.090;6.074;2023-06-19T03:28:55;9.30;;;6.38;;
53108;SDS011;39007;53.090;6.074;2023-06-19T03:31:21;11.02;;;6.40;;
53108;SDS011;39007;53.090;6.074;2023-06-19T03:33:47;9.50;;;5.93;;
53108;SDS011;39007;53.090;6.074;2023-06-19T03:36:13;11.52;;;6.30;;
53108;SDS011;39007;53.090;6.074;2023-06-19T03:38:40;9.70;;;5.40;;
53108;SDS011;39007;53.090;6.074;2023-06-19T03:41:06;6.18;;;4.70;;
53108;SDS011;39007;53.090;6.074;2023-06-19T03:43:32;8.20;;;4.57;;
53108;SDS011;39007;53.090;6.074;2023-06-19T03:45:58;6.32;;;4.10;;
53108;SDS011;39007;53.090;6.074;2023-06-19T03:48:24;5.53;;;3.63;;
53108;SDS011;39007;53.090;6.074;2023-06-19T03:50:50;6.75;;;3.88;;
53108;SDS011;39007;53.090;6.074;2023-06-19T03:53:16;6.25;;;3.60;;
53108;SDS011;39007;53.090;6.074;2023-06-19T03:55:42;6.47;;;3.75;;
53108;SDS011;39007;53.090;6.074;2023-06-19T03:58:09;7.35;;;3.50;;
53108;SDS011;39007;53.090;6.074;2023-06-19T04:00:35;5.28;;;3.65;;
53108;SDS011;39007;53.090;6.074;2023-06-19T04:03:01;5.00;;;3.33;;
53108;SDS011;39007;53.090;6.074;2023-06-19T04:05:27;9.68;;;3.25;;
53108;SDS011;39007;53.090;6.074;2023-06-19T04:07:54;9.65;;;3.20;;
53108;SDS011;39007;53.090;6.074;2023-06-19T04:10:20;6.55;;;3.50;;
53108;SDS011;39007;53.090;6.074;2023-06-19T04:12:46;5.30;;;3.30;;
53108;SDS011;39007;53.090;6.074;2023-06-19T04:15:13;6.32;;;3.92;;
53108;SDS011;39007;53.090;6.074;2023-06-19T04:17:39;5.50;;;3.20;;
53108;SDS011;39007;53.090;6.074;2023-06-19T04:20:05;6.45;;;3.35;;
53108;SDS011;39007;53.090;6.074;2023-06-19T04:22:36;6.18;;;3.30;;
53108;SDS011;39007;53.090;6.074;2023-06-19T04:25:02;6.45;;;3.13;;
53108;SDS011;39007;53.090;6.074;2023-06-19T04:27:29;4.97;;;3.38;;
53108;SDS011;39007;53.090;6.074;2023-06-19T04:29:55;5.55;;;3.55;;
53108;SDS011;39007;53.090;6.074;2023-06-19T04:32:21;10.88;;;3.83;;
53108;SDS011;39007;53.090;6.074;2023-06-19T04:34:47;5.32;;;3.30;;
53108;SDS011;39007;53.090;6.074;2023-06-19T04:37:13;6.65;;;3.45;;
53108;SDS011;39007;53.090;6.074;2023-06-19T04:39:44;6.30;;;3.55;;
53108;SDS011;39007;53.090;6.074;2023-06-19T04:42:10;5.07;;;3.40;;
53108;SDS011;39007;53.090;6.074;2023-06-19T04:44:37;4.95;;;3.70;;
53108;SDS011;39007;53.090;6.074;2023-06-19T04:47:03;5.53;;;3.90;;
53108;SDS011;39007;53.090;6.074;2023-06-19T04:49:30;10.98;;;3.60;;
53108;SDS011;39007;53.090;6.074;2023-06-19T04:51:59;5.60;;;4.03;;
53108;SDS011;39007;53.090;6.074;2023-06-19T04:54:25;8.00;;;3.80;;
53108;SDS011;39007;53.090;6.074;2023-06-19T04:56:51;6.38;;;4.40;;
53108;SDS011;39007;53.090;6.074;2023-06-19T04:59:18;5.72;;;3.97;;
53108;SDS011;39007;53.090;6.074;2023-06-19T05:01:44;6.38;;;3.85;;
53108;SDS011;39007;53.090;6.074;2023-06-19T05:04:10;6.25;;;4.20;;
53108;SDS011;39007;53.090;6.074;2023-06-19T05:06:36;6.05;;;4.43;;
53108;SDS011;39007;53.090;6.074;2023-06-19T05:09:02;6.85;;;4.25;;
53108;SDS011;39007;53.090;6.074;2023-06-19T05:11:30;11.10;;;5.07;;
53108;SDS011;39007;53.090;6.074;2023-06-19T05:13:56;9.52;;;4.78;;
53108;SDS011;39007;53.090;6.074;2023-06-19T05:16:22;6.07;;;4.25;;
53108;SDS011;39007;53.090;6.074;2023-06-19T05:18:49;7.38;;;4.32;;
53108;SDS011;39007;53.090;6.074;2023-06-19T05:21:16;7.70;;;4.20;;
53108;SDS011;39007;53.090;6.074;2023-06-19T05:23:42;7.32;;;4.72;;
53108;SDS011;39007;53.090;6.074;2023-06-19T05:26:09;6.97;;;5.03;;
53108;SDS011;39007;53.090;6.074;2023-06-19T05:28:35;6.00;;;4.78;;
53108;SDS011;39007;53.090;6.074;2023-06-19T05:31:01;8.00;;;4.93;;
53108;SDS011;39007;53.090;6.074;2023-06-19T05:33:27;7.97;;;5.38;;
53108;SDS011;39007;53.090;6.074;2023-06-19T05:35:53;10.48;;;5.38;;
53108;SDS011;39007;53.090;6.074;2023-06-19T05:38:22;8.35;;;5.80;;
53108;SDS011;39007;53.090;6.074;2023-06-19T05:40:50;11.60;;;6.95;;
53108;SDS011;39007;53.090;6.074;2023-06-19T05:43:17;11.63;;;8.55;;
53108;SDS011;39007;53.090;6.074;2023-06-19T05:45:47;13.45;;;8.77;;
53108;SDS011;39007;53.090;6.074;2023-06-19T05:48:13;15.05;;;9.40;;
53108;SDS011;39007;53.090;6.074;2023-06-19T05:50:39;13.68;;;10.13;;
53108;SDS011;39007;53.090;6.074;2023-06-19T05:53:05;15.68;;;12.00;;
53108;SDS011;39007;53.090;6.074;2023-06-19T05:55:31;14.10;;;11.57;;
53108;SDS011;39007;53.090;6.074;2023-06-19T05:57:58;20.27;;;12.38;;
53108;SDS011;39007;53.090;6.074;2023-06-19T06:00:24;17.05;;;12.98;;
53108;SDS011;39007;53.090;6.074;2023-06-19T06:02:50;16.35;;;12.63;;
53108;SDS011;39007;53.090;6.074;2023-06-19T06:05:17;20.63;;;14.13;;
53108;SDS011;39007;53.090;6.074;2023-06-19T06:07:45;16.63;;;13.88;;
53108;SDS011;39007;53.090;6.074;2023-06-19T06:10:11;16.20;;;14.45;;
53108;SDS011;39007;53.090;6.074;2023-06-19T06:12:38;15.38;;;13.75;;
53108;SDS011;39007;53.090;6.074;2023-06-19T06:15:05;16.05;;;14.40;;
53108;SDS011;39007;53.090;6.074;2023-06-19T06:17:31;19.25;;;14.50;;
53108;SDS011;39007;53.090;6.074;2023-06-19T06:19:57;17.27;;;15.23;;
53108;SDS011;39007;53.090;6.074;2023-06-19T06:22:23;18.10;;;15.13;;
53108;SDS011;39007;53.090;6.074;2023-06-19T06:24:49;17.63;;;15.68;;
53108;SDS011;39007;53.090;6.074;2023-06-19T06:27:15;23.38;;;17.45;;
53108;SDS011;39007;53.090;6.074;2023-06-19T06:29:42;23.13;;;18.23;;
53108;SDS011;39007;53.090;6.074;2023-06-19T06:32:08;24.60;;;17.77;;
53108;SDS011;39007;53.090;6.074;2023-06-19T06:34:35;28.67;;;19.90;;
53108;SDS011;39007;53.090;6.074;2023-06-19T06:37:01;30.50;;;23.02;;
53108;SDS011;39007;53.090;6.074;2023-06-19T06:39:28;31.40;;;24.02;;
53108;SDS011;39007;53.090;6.074;2023-06-19T06:41:54;30.48;;;23.45;;
53108;SDS011;39007;53.090;6.074;2023-06-19T06:44:20;36.40;;;25.75;;
53108;SDS011;39007;53.090;6.074;2023-06-19T06:46:46;35.55;;;26.67;;
53108;SDS011;39007;53.090;6.074;2023-06-19T06:49:12;37.08;;;27.58;;
53108;SDS011;39007;53.090;6.074;2023-06-19T06:51:38;38.53;;;27.38;;
53108;SDS011;39007;53.090;6.074;2023-06-19T06:54:04;42.83;;;29.55;;
53108;SDS011;39007;53.090;6.074;2023-06-19T06:56:31;40.97;;;28.00;;
53108;SDS011;39007;53.090;6.074;2023-06-19T06:58:57;35.58;;;25.13;;
53108;SDS011;39007;53.090;6.074;2023-06-19T07:01:23;31.75;;;23.63;;
53108;SDS011;39007;53.090;6.074;2023-06-19T07:03:49;30.13;;;21.75;;
53108;SDS011;39007;53.090;6.074;2023-06-19T07:06:15;29.98;;;22.13;;
53108;SDS011;39007;53.090;6.074;2023-06-19T07:08:41;29.02;;;22.67;;
53108;SDS011;39007;53.090;6.074;2023-06-19T07:11:07;31.15;;;24.08;;
53108;SDS011;39007;53.090;6.074;2023-06-19T07:13:34;33.38;;;23.35;;
53108;SDS011;39007;53.090;6.074;2023-06-19T07:16:00;35.20;;;24.40;;
53108;SDS011;39007;53.090;6.074;2023-06-19T07:18:26;35.45;;;24.30;;
53108;SDS011;39007;53.090;6.074;2023-06-19T07:20:53;33.72;;;24.48;;
53108;SDS011;39007;53.090;6.074;2023-06-19T07:23:19;36.42;;;25.50;;
53108;SDS011;39007;53.090;6.074;2023-06-19T07:25:46;34.10;;;23.98;;
53108;SDS011;39007;53.090;6.074;2023-06-19T07:28:12;35.03;;;25.05;;
53108;SDS011;39007;53.090;6.074;2023-06-19T07:30:39;33.38;;;23.80;;
53108;SDS011;39007;53.090;6.074;2023-06-19T07:33:05;28.10;;;21.17;;
53108;SDS011;39007;53.090;6.074;2023-06-19T07:35:31;24.02;;;18.13;;
53108;SDS011;39007;53.090;6.074;2023-06-19T07:37:57;23.80;;;17.73;;
53108;SDS011;39007;53.090;6.074;2023-06-19T07:40:23;21.80;;;17.08;;
53108;SDS011;39007;53.090;6.074;2023-06-19T07:42:49;23.98;;;17.02;;
53108;SDS011;39007;53.090;6.074;2023-06-19T07:45:16;24.98;;;16.30;;
53108;SDS011;39007;53.090;6.074;2023-06-19T07:47:42;22.33;;;15.95;;
53108;SDS011;39007;53.090;6.074;2023-06-19T07:50:08;20.77;;;16.00;;
53108;SDS011;39007;53.090;6.074;2023-06-19T07:52:34;25.30;;;16.35;;
53108;SDS011;39007;53.090;6.074;2023-06-19T07:55:00;21.15;;;17.23;;
53108;SDS011;39007;53.090;6.074;2023-06-19T07:57:26;24.67;;;17.90;;
53108;SDS011;39007;53.090;6.074;2023-06-19T07:59:53;24.92;;;18.25;;
53108;SDS011;39007;53.090;6.074;2023-06-19T08:02:19;26.33;;;18.35;;
53108;SDS011;39007;53.090;6.074;2023-06-19T08:04:46;23.48;;;16.63;;
53108;SDS011;39007;53.090;6.074;2023-06-19T08:07:12;21.50;;;17.27;;
53108;SDS011;39007;53.090;6.074;2023-06-19T08:09:38;21.48;;;17.00;;
53108;SDS011;39007;53.090;6.074;2023-06-19T08:12:05;18.17;;;16.15;;
53108;SDS011;39007;53.090;6.074;2023-06-19T08:14:31;18.92;;;15.30;;
53108;SDS011;39007;53.090;6.074;2023-06-19T08:16:57;20.35;;;14.65;;
53108;SDS011;39007;53.090;6.074;2023-06-19T08:19:23;19.80;;;14.77;;
53108;SDS011;39007;53.090;6.074;2023-06-19T08:21:49;15.45;;;13.05;;
53108;SDS011;39007;53.090;6.074;2023-06-19T08:24:15;16.40;;;13.05;;
53108;SDS011;39007;53.090;6.074;2023-06-19T08:26:42;18.08;;;11.63;;
53108;SDS011;39007;53.090;6.074;2023-06-19T08:29:08;18.20;;;11.70;;
53108;SDS011;39007;53.090;6.074;2023-06-19T08:31:34;17.88;;;10.93;;
53108;SDS011;39007;53.090;6.074;2023-06-19T08:34:00;19.77;;;10.80;;
53108;SDS011;39007;53.090;6.074;2023-06-19T08:36:32;16.30;;;10.48;;
53108;SDS011;39007;53.090;6.074;2023-06-19T08:38:58;12.70;;;9.65;;
53108;SDS011;39007;53.090;6.074;2023-06-19T08:41:24;13.85;;;8.93;;
53108;SDS011;39007;53.090;6.074;2023-06-19T08:43:51;16.17;;;9.05;;
53108;SDS011;39007;53.090;6.074;2023-06-19T08:46:17;15.18;;;9.73;;
53108;SDS011;39007;53.090;6.074;2023-06-19T08:48:44;16.58;;;9.30;;
53108;SDS011;39007;53.090;6.074;2023-06-19T08:51:11;12.43;;;9.40;;
53108;SDS011;39007;53.090;6.074;2023-06-19T08:53:46;14.30;;;8.90;;
53108;SDS011;39007;53.090;6.074;2023-06-19T08:56:12;16.15;;;9.85;;
53108;SDS011;39007;53.090;6.074;2023-06-19T08:58:39;14.32;;;9.82;;
53108;SDS011;39007;53.090;6.074;2023-06-19T09:01:05;13.60;;;9.63;;
53108;SDS011;39007;53.090;6.074;2023-06-19T09:03:31;13.55;;;10.30;;
53108;SDS011;39007;53.090;6.074;2023-06-19T09:06:02;18.42;;;10.43;;
53108;SDS011;39007;53.090;6.074;2023-06-19T09:08:28;15.07;;;11.00;;
53108;SDS011;39007;53.090;6.074;2023-06-19T09:10:58;17.55;;;11.07;;
53108;SDS011;39007;53.090;6.074;2023-06-19T09:13:24;15.95;;;11.73;;
53108;SDS011;39007;53.090;6.074;2023-06-19T09:16:06;13.80;;;11.55;;
53108;SDS011;39007;53.090;6.074;2023-06-19T09:18:45;13.88;;;11.50;;
53108;SDS011;39007;53.090;6.074;2023-06-19T09:21:20;16.65;;;11.20;;
53108;SDS011;39007;53.090;6.074;2023-06-19T09:23:48;17.40;;;11.70;;
53108;SDS011;39007;53.090;6.074;2023-06-19T09:26:17;16.70;;;11.88;;
53108;SDS011;39007;53.090;6.074;2023-06-19T09:28:44;14.30;;;10.77;;
53108;SDS011;39007;53.090;6.074;2023-06-19T09:31:11;17.75;;;12.10;;
53108;SDS011;39007;53.090;6.074;2023-06-19T09:33:38;15.50;;;11.23;;
53108;SDS011;39007;53.090;6.074;2023-06-19T09:36:05;21.13;;;12.45;;
53108;SDS011;39007;53.090;6.074;2023-06-19T09:38:35;17.55;;;12.90;;
53108;SDS011;39007;53.090;6.074;2023-06-19T09:41:03;16.95;;;11.93;;
53108;SDS011;39007;53.090;6.074;2023-06-19T09:43:37;20.05;;;12.10;;
53108;SDS011;39007;53.090;6.074;2023-06-19T09:46:04;20.35;;;12.68;;
53108;SDS011;39007;53.090;6.074;2023-06-19T09:48:30;17.20;;;12.65;;
53108;SDS011;39007;53.090;6.074;2023-06-19T09:51:05;18.25;;;12.30;;
53108;SDS011;39007;53.090;6.074;2023-06-19T09:53:31;20.05;;;12.23;;
53108;SDS011;39007;53.090;6.074;2023-06-19T09:55:58;18.77;;;11.70;;
53108;SDS011;39007;53.090;6.074;2023-06-19T09:58:24;15.93;;;11.10;;
53108;SDS011;39007;53.090;6.074;2023-06-19T10:00:50;16.42;;;11.57;;
53108;SDS011;39007;53.090;6.074;2023-06-19T10:03:16;15.18;;;11.05;;
53108;SDS011;39007;53.090;6.074;2023-06-19T10:05:43;17.83;;;12.93;;
53108;SDS011;39007;53.090;6.074;2023-06-19T10:08:09;18.75;;;12.00;;
53108;SDS011;39007;53.090;6.074;2023-06-19T10:10:36;17.83;;;11.95;;
53108;SDS011;39007;53.090;6.074;2023-06-19T10:13:12;19.40;;;13.52;;
53108;SDS011;39007;53.090;6.074;2023-06-19T10:15:42;18.08;;;12.73;;
53108;SDS011;39007;53.090;6.074;2023-06-19T10:18:13;16.48;;;12.10;;
53108;SDS011;39007;53.090;6.074;2023-06-19T10:20:41;16.27;;;12.57;;
53108;SDS011;39007;53.090;6.074;2023-06-19T10:23:08;19.45;;;13.95;;
53108;SDS011;39007;53.090;6.074;2023-06-19T10:25:37;20.50;;;14.75;;
53108;SDS011;39007;53.090;6.074;2023-06-19T10:28:03;16.90;;;14.02;;
53108;SDS011;39007;53.090;6.074;2023-06-19T10:30:33;20.50;;;15.05;;
53108;SDS011;39007;53.090;6.074;2023-06-19T10:32:59;19.88;;;14.50;;
53108;SDS011;39007;53.090;6.074;2023-06-19T10:35:29;17.58;;;13.68;;
53108;SDS011;39007;53.090;6.074;2023-06-19T10:37:55;16.60;;;13.00;;
53108;SDS011;39007;53.090;6.074;2023-06-19T10:40:21;17.70;;;13.10;;
53108;SDS011;39007;53.090;6.074;2023-06-19T10:42:47;19.08;;;13.90;;
53108;SDS011;39007;53.090;6.074;2023-06-19T10:45:14;17.55;;;13.43;;
53108;SDS011;39007;53.090;6.074;2023-06-19T10:47:44;16.02;;;11.98;;
53108;SDS011;39007;53.090;6.074;2023-06-19T10:50:10;21.70;;;13.15;;
53108;SDS011;39007;53.090;6.074;2023-06-19T10:52:39;17.13;;;12.45;;
53108;SDS011;39007;53.090;6.074;2023-06-19T10:55:05;24.85;;;14.32;;
53108;SDS011;39007;53.090;6.074;2023-06-19T10:57:32;17.27;;;12.57;;
53108;SDS011;39007;53.090;6.074;2023-06-19T10:59:58;15.38;;;11.85;;
53108;SDS011;39007;53.090;6.074;2023-06-19T11:02:25;16.92;;;11.63;;
53108;SDS011;39007;53.090;6.074;2023-06-19T11:04:54;16.45;;;12.90;;
53108;SDS011;39007;53.090;6.074;2023-06-19T11:07:23;20.17;;;14.25;;
53108;SDS011;39007;53.090;6.074;2023-06-19T11:09:50;18.92;;;13.65;;
53108;SDS011;39007;53.090;6.074;2023-06-19T11:12:22;16.75;;;13.50;;
53108;SDS011;39007;53.090;6.074;2023-06-19T11:14:48;19.05;;;14.88;;
53108;SDS011;39007;53.090;6.074;2023-06-19T11:17:15;19.83;;;15.32;;
53108;SDS011;39007;53.090;6.074;2023-06-19T11:19:43;18.67;;;15.73;;
53108;SDS011;39007;53.090;6.074;2023-06-19T11:22:09;21.63;;;16.30;;
53108;SDS011;39007;53.090;6.074;2023-06-19T11:24:36;21.83;;;17.60;;
53108;SDS011;39007;53.090;6.074;2023-06-19T11:27:02;26.45;;;16.73;;
53108;SDS011;39007;53.090;6.074;2023-06-19T11:29:30;28.00;;;16.73;;
53108;SDS011;39007;53.090;6.074;2023-06-19T11:32:07;18.27;;;15.23;;
53108;SDS011;39007;53.090;6.074;2023-06-19T11:34:34;20.35;;;14.98;;
53108;SDS011;39007;53.090;6.074;2023-06-19T11:37:22;21.33;;;14.95;;
53108;SDS011;39007;53.090;6.074;2023-06-19T11:39:48;19.98;;;15.40;;
53108;SDS011;39007;53.090;6.074;2023-06-19T11:42:16;20.08;;;15.85;;
53108;SDS011;39007;53.090;6.074;2023-06-19T11:45:04;23.90;;;16.17;;
53108;SDS011;39007;53.090;6.074;2023-06-19T11:47:32;20.50;;;16.23;;
53108;SDS011;39007;53.090;6.074;2023-06-19T11:49:58;20.52;;;15.48;;
53108;SDS011;39007;53.090;6.074;2023-06-19T11:52:25;22.55;;;14.00;;
53108;SDS011;39007;53.090;6.074;2023-06-19T11:54:51;18.15;;;14.38;;
53108;SDS011;39007;53.090;6.074;2023-06-19T11:57:17;19.13;;;14.18;;
53108;SDS011;39007;53.090;6.074;2023-06-19T11:59:44;15.57;;;11.77;;
53108;SDS011;39007;53.090;6.074;2023-06-19T12:02:10;22.05;;;13.20;;
53108;SDS011;39007;53.090;6.074;2023-06-19T12:04:37;17.23;;;12.68;;
53108;SDS011;39007;53.090;6.074;2023-06-19T12:07:03;17.65;;;12.32;;
53108;SDS011;39007;53.090;6.074;2023-06-19T12:09:29;18.63;;;12.20;;
53108;SDS011;39007;53.090;6.074;2023-06-19T12:11:57;17.77;;;12.55;;
53108;SDS011;39007;53.090;6.074;2023-06-19T12:14:23;16.42;;;12.15;;
53108;SDS011;39007;53.090;6.074;2023-06-19T12:16:49;14.88;;;10.50;;
53108;SDS011;39007;53.090;6.074;2023-06-19T12:19:16;12.63;;;9.23;;
53108;SDS011;39007;53.090;6.074;2023-06-19T12:21:42;12.25;;;9.32;;
53108;SDS011;39007;53.090;6.074;2023-06-19T12:24:08;15.57;;;11.95;;
53108;SDS011;39007;53.090;6.074;2023-06-19T12:26:35;16.05;;;12.15;;
53108;SDS011;39007;53.090;6.074;2023-06-19T12:29:04;17.08;;;13.20;;
53108;SDS011;39007;53.090;6.074;2023-06-19T12:31:31;13.75;;;11.82;;
53108;SDS011;39007;53.090;6.074;2023-06-19T12:33:57;17.00;;;11.00;;
53108;SDS011;39007;53.090;6.074;2023-06-19T12:36:24;16.25;;;10.73;;
53108;SDS011;39007;53.090;6.074;2023-06-19T12:38:52;17.80;;;9.52;;
53108;SDS011;39007;53.090;6.074;2023-06-19T12:41:19;12.10;;;7.93;;
53108;SDS011;39007;53.090;6.074;2023-06-19T12:43:45;10.75;;;7.38;;
53108;SDS011;39007;53.090;6.074;2023-06-19T12:46:12;11.10;;;7.60;;
53108;SDS011;39007;53.090;6.074;2023-06-19T12:48:38;14.40;;;8.82;;
53108;SDS011;39007;53.090;6.074;2023-06-19T12:51:04;12.65;;;7.95;;
53108;SDS011;39007;53.090;6.074;2023-06-19T12:53:30;10.43;;;8.10;;
53108;SDS011;39007;53.090;6.074;2023-06-19T12:55:56;11.25;;;7.97;;
53108;SDS011;39007;53.090;6.074;2023-06-19T12:58:23;10.57;;;7.50;;
53108;SDS011;39007;53.090;6.074;2023-06-19T13:00:49;12.18;;;6.65;;
53108;SDS011;39007;53.090;6.074;2023-06-19T13:03:15;10.02;;;6.90;;
53108;SDS011;39007;53.090;6.074;2023-06-19T13:05:41;8.20;;;5.85;;
53108;SDS011;39007;53.090;6.074;2023-06-19T13:08:07;10.88;;;6.60;;
53108;SDS011;39007;53.090;6.074;2023-06-19T13:10:33;11.25;;;6.80;;
53108;SDS011;39007;53.090;6.074;2023-06-19T13:13:00;9.02;;;6.80;;
53108;SDS011;39007;53.090;6.074;2023-06-19T13:15:26;10.13;;;7.35;;
53108;SDS011;39007;53.090;6.074;2023-06-19T13:17:53;14.57;;;7.07;;
53108;SDS011;39007;53.090;6.074;2023-06-19T13:20:19;10.52;;;7.85;;
53108;SDS011;39007;53.090;6.074;2023-06-19T13:22:45;14.00;;;7.82;;
53108;SDS011;39007;53.090;6.074;2023-06-19T13:25:11;14.05;;;8.30;;
53108;SDS011;39007;53.090;6.074;2023-06-19T13:27:37;11.40;;;8.18;;
53108;SDS011;39007;53.090;6.074;2023-06-19T13:30:03;9.75;;;7.25;;
53108;SDS011;39007;53.090;6.074;2023-06-19T13:32:29;12.88;;;7.20;;
53108;SDS011;39007;53.090;6.074;2023-06-19T13:34:55;10.63;;;7.45;;
53108;SDS011;39007;53.090;6.074;2023-06-19T13:37:21;11.32;;;6.85;;
53108;SDS011;39007;53.090;6.074;2023-06-19T13:39:48;11.18;;;8.30;;
53108;SDS011;39007;53.090;6.074;2023-06-19T13:42:14;11.50;;;7.82;;
53108;SDS011;39007;53.090;6.074;2023-06-19T13:44:40;10.48;;;8.05;;
53108;SDS011;39007;53.090;6.074;2023-06-19T13:47:06;11.60;;;7.72;;
53108;SDS011;39007;53.090;6.074;2023-06-19T13:49:32;12.75;;;7.85;;
53108;SDS011;39007;53.090;6.074;2023-06-19T13:51:58;11.10;;;7.30;;
53108;SDS011;39007;53.090;6.074;2023-06-19T13:54:25;10.65;;;6.40;;
53108;SDS011;39007;53.090;6.074;2023-06-19T13:56:51;9.00;;;6.75;;
53108;SDS011;39007;53.090;6.074;2023-06-19T13:59:17;10.52;;;7.13;;
53108;SDS011;39007;53.090;6.074;2023-06-19T14:01:43;12.75;;;6.90;;
53108;SDS011;39007;53.090;6.074;2023-06-19T14:04:10;9.85;;;7.10;;
53108;SDS011;39007;53.090;6.074;2023-06-19T14:06:36;10.13;;;6.15;;
53108;SDS011;39007;53.090;6.074;2023-06-19T14:09:03;7.97;;;5.97;;
53108;SDS011;39007;53.090;6.074;2023-06-19T14:11:30;9.23;;;6.10;;
53108;SDS011;39007;53.090;6.074;2023-06-19T14:13:57;9.80;;;5.50;;
53108;SDS011;39007;53.090;6.074;2023-06-19T14:16:24;10.93;;;5.70;;
53108;SDS011;39007;53.090;6.074;2023-06-19T14:18:50;9.10;;;5.85;;
53108;SDS011;39007;53.090;6.074;2023-06-19T14:21:16;8.52;;;5.82;;
53108;SDS011;39007;53.090;6.074;2023-06-19T14:23:42;15.00;;;5.70;;
53108;SDS011;39007;53.090;6.074;2023-06-19T14:26:12;9.60;;;6.22;;
53108;SDS011;39007;53.090;6.074;2023-06-19T14:28:38;10.23;;;6.32;;
53108;SDS011;39007;53.090;6.074;2023-06-19T14:31:05;9.27;;;5.75;;